sensor_id;sensor_type;location;lat;lon;timestamp;pressure;altitude;pressure_sealevel;temperature;humidity
15229;BME280;7717;47.792;12.076;2023-07-13T00:01:27;96221.66;;;17.23;99.71
15229;BME280;7717;47.792;12.076;2023-07-13T00:03:59;96214.28;;;17.25;99.68
15229;BME280;7717;47.792;12.076;2023-07-13T00:06:25;96148.13;;;16.95;99.81
15229;BME280;7717;47.792;12.076;2023-07-13T00:08:50;96194.78;;;17.24;99.91
15229;BME280;7717;47.792;12.076;2023-07-13T00:11:16;96183.28;;;17.24;99.57
15229;BME280;7717;47.792;12.076;2023-07-13T00:13:43;96150.72;;;17.22;99.23
15229;BME280;7717;47.792;12.076;2023-07-13T00:16:10;96121.94;;;17.24;99.50
15229;BME280;7717;47.792;12.076;2023-07-13T00:18:36;96087.59;;;17.02;98.69
15229;BME280;7717;47.792;12.076;2023-07-13T00:21:02;96092.31;;;17.07;98.74
15229;BME280;7717;47.792;12.076;2023-07-13T00:23:38;96120.50;;;17.28;98.59
15229;BME280;7717;47.792;12.076;2023-07-13T00:26:05;96131.34;;;17.33;98.77
15229;BME280;7717;47.792;12.076;2023-07-13T00:28:38;96140.59;;;17.30;99.17
15229;BME280;7717;47.792;12.076;2023-07-13T00:31:04;96147.34;;;17.33;99.00
15229;BME280;7717;47.792;12.076;2023-07-13T00:33:31;96086.41;;;16.98;98.63
15229;BME280;7717;47.792;12.076;2023-07-13T00:35:57;96121.56;;;17.20;98.56
15229;BME280;7717;47.792;12.076;2023-07-13T00:38:23;96136.47;;;17.34;98.31
15229;BME280;7717;47.792;12.076;2023-07-13T00:40:49;96122.91;;;17.36;97.95
15229;BME280;7717;47.792;12.076;2023-07-13T00:43:20;96135.38;;;17.42;97.32
15229;BME280;7717;47.792;12.076;2023-07-13T00:48:14;96142.19;;;17.38;97.30
15229;BME280;7717;47.792;12.076;2023-07-13T00:50:41;96148.13;;;17.40;96.85
15229;BME280;7717;47.792;12.076;2023-07-13T00:53:07;96153.88;;;17.37;96.93
15229;BME280;7717;47.792;12.076;2023-07-13T00:55:33;96149.19;;;17.32;96.98
15229;BME280;7717;47.792;12.076;2023-07-13T00:57:59;96150.22;;;17.31;96.99
15229;BME280;7717;47.792;12.076;2023-07-13T01:00:25;96158.66;;;17.28;97.10
15229;BME280;7717;47.792;12.076;2023-07-13T01:02:51;96164.06;;;17.15;97.74
15229;BME280;7717;47.792;12.076;2023-07-13T01:05:19;96166.13;;;17.13;97.82
15229;BME280;7717;47.792;12.076;2023-07-13T01:07:47;96171.03;;;17.16;97.65
15229;BME280;7717;47.792;12.076;2023-07-13T01:10:14;96162.63;;;17.13;97.80
15229;BME280;7717;47.792;12.076;2023-07-13T01:12:40;96168.63;;;17.08;98.19
15229;BME280;7717;47.792;12.076;2023-07-13T01:15:42;96177.63;;;17.14;97.98
15229;BME280;7717;47.792;12.076;2023-07-13T01:18:11;96155.28;;;17.08;97.85
15229;BME280;7717;47.792;12.076;2023-07-13T01:20:38;96166.16;;;17.06;97.78
15229;BME280;7717;47.792;12.076;2023-07-13T01:23:06;96176.66;;;17.01;98.04
15229;BME280;7717;47.792;12.076;2023-07-13T01:25:32;96176.22;;;17.04;98.38
15229;BME280;7717;47.792;12.076;2023-07-13T01:27:57;96173.56;;;16.98;98.23
15229;BME280;7717;47.792;12.076;2023-07-13T01:30:23;96168.69;;;16.88;98.80
15229;BME280;7717;47.792;12.076;2023-07-13T01:32:49;96172.16;;;16.89;99.12
15229;BME280;7717;47.792;12.076;2023-07-13T01:35:15;96149.28;;;16.68;99.10
15229;BME280;7717;47.792;12.076;2023-07-13T01:37:42;96182.47;;;16.79;99.12
15229;BME280;7717;47.792;12.076;2023-07-13T01:40:08;96178.38;;;16.69;99.42
15229;BME280;7717;47.792;12.076;2023-07-13T01:42:34;96154.63;;;16.55;99.92
15229;BME280;7717;47.792;12.076;2023-07-13T01:44:59;96170.63;;;16.68;100.00
15229;BME280;7717;47.792;12.076;2023-07-13T01:47:24;96181.84;;;16.70;100.00
15229;BME280;7717;47.792;12.076;2023-07-13T01:49:51;96094.47;;;16.14;100.00
15229;BME280;7717;47.792;12.076;2023-07-13T01:52:17;96182.91;;;16.62;100.00
15229;BME280;7717;47.792;12.076;2023-07-13T01:54:45;96153.59;;;16.43;100.00
15229;BME280;7717;47.792;12.076;2023-07-13T01:57:10;96165.31;;;16.42;100.00
15229;BME280;7717;47.792;12.076;2023-07-13T01:59:36;96163.03;;;16.52;100.00
15229;BME280;7717;47.792;12.076;2023-07-13T02:02:01;96185.78;;;16.61;100.00
15229;BME280;7717;47.792;12.076;2023-07-13T02:04:26;96156.50;;;16.41;100.00
15229;BME280;7717;47.792;12.076;2023-07-13T02:06:52;96179.00;;;16.52;100.00
15229;BME280;7717;47.792;12.076;2023-07-13T02:09:17;96181.69;;;16.45;100.00
15229;BME280;7717;47.792;12.076;2023-07-13T02:11:46;96182.31;;;16.47;100.00
15229;BME280;7717;47.792;12.076;2023-07-13T02:14:11;96180.88;;;16.45;100.00
15229;BME280;7717;47.792;12.076;2023-07-13T02:16:37;96190.31;;;16.47;100.00
15229;BME280;7717;47.792;12.076;2023-07-13T02:19:02;96190.06;;;16.49;100.00
15229;BME280;7717;47.792;12.076;2023-07-13T02:21:31;96180.03;;;16.51;100.00
15229;BME280;7717;47.792;12.076;2023-07-13T02:23:56;96182.50;;;16.52;100.00
15229;BME280;7717;47.792;12.076;2023-07-13T02:26:22;96185.38;;;16.44;100.00
15229;BME280;7717;47.792;12.076;2023-07-13T02:28:48;96190.72;;;16.38;100.00
15229;BME280;7717;47.792;12.076;2023-07-13T02:31:15;96181.72;;;16.25;100.00
15229;BME280;7717;47.792;12.076;2023-07-13T02:33:40;96178.66;;;16.15;100.00
15229;BME280;7717;47.792;12.076;2023-07-13T02:36:07;96204.88;;;16.25;100.00
15229;BME280;7717;47.792;12.076;2023-07-13T02:38:33;96201.38;;;16.24;100.00
15229;BME280;7717;47.792;12.076;2023-07-13T02:41:00;96210.38;;;16.23;100.00
15229;BME280;7717;47.792;12.076;2023-07-13T02:43:26;96208.75;;;16.22;100.00
15229;BME280;7717;47.792;12.076;2023-07-13T02:45:55;96139.53;;;15.89;100.00
15229;BME280;7717;47.792;12.076;2023-07-13T02:48:21;96207.13;;;16.21;100.00
15229;BME280;7717;47.792;12.076;2023-07-13T02:50:46;96208.56;;;16.24;100.00
15229;BME280;7717;47.792;12.076;2023-07-13T02:53:12;96149.38;;;15.82;100.00
15229;BME280;7717;47.792;12.076;2023-07-13T02:55:38;96211.41;;;16.22;100.00
15229;BME280;7717;47.792;12.076;2023-07-13T02:58:04;96200.38;;;16.19;100.00
15229;BME280;7717;47.792;12.076;2023-07-13T03:00:31;96204.84;;;16.32;100.00
15229;BME280;7717;47.792;12.076;2023-07-13T03:02:56;96215.13;;;16.28;100.00
15229;BME280;7717;47.792;12.076;2023-07-13T03:05:23;96207.94;;;16.28;100.00
15229;BME280;7717;47.792;12.076;2023-07-13T03:07:49;96153.28;;;15.86;100.00
15229;BME280;7717;47.792;12.076;2023-07-13T03:10:15;96217.78;;;16.28;100.00
15229;BME280;7717;47.792;12.076;2023-07-13T03:12:41;96221.47;;;16.27;100.00
15229;BME280;7717;47.792;12.076;2023-07-13T03:15:07;96224.13;;;16.27;100.00
15229;BME280;7717;47.792;12.076;2023-07-13T03:17:32;96233.97;;;16.26;100.00
15229;BME280;7717;47.792;12.076;2023-07-13T03:19:58;96211.03;;;16.12;100.00
15229;BME280;7717;47.792;12.076;2023-07-13T03:22:23;96232.50;;;16.17;100.00
15229;BME280;7717;47.792;12.076;2023-07-13T03:24:49;96172.53;;;15.75;100.00
15229;BME280;7717;47.792;12.076;2023-07-13T03:27:16;96233.53;;;16.10;100.00
15229;BME280;7717;47.792;12.076;2023-07-13T03:29:42;96236.81;;;16.05;100.00
15229;BME280;7717;47.792;12.076;2023-07-13T03:32:07;96220.19;;;15.83;100.00
15229;BME280;7717;47.792;12.076;2023-07-13T03:34:33;96217.78;;;15.82;100.00
15229;BME280;7717;47.792;12.076;2023-07-13T03:36:58;96249.09;;;16.00;100.00
15229;BME280;7717;47.792;12.076;2023-07-13T03:39:24;96215.72;;;15.84;100.00
15229;BME280;7717;47.792;12.076;2023-07-13T03:41:52;96244.63;;;16.07;100.00
15229;BME280;7717;47.792;12.076;2023-07-13T03:44:19;96239.88;;;16.02;100.00
15229;BME280;7717;47.792;12.076;2023-07-13T03:46:44;96246.03;;;16.16;100.00
15229;BME280;7717;47.792;12.076;2023-07-13T03:49:10;96199.34;;;15.87;100.00
15229;BME280;7717;47.792;12.076;2023-07-13T03:51:35;96254.03;;;16.22;100.00
15229;BME280;7717;47.792;12.076;2023-07-13T03:54:01;96266.53;;;16.28;100.00
15229;BME280;7717;47.792;12.076;2023-07-13T03:56:28;96260.78;;;16.25;100.00
15229;BME280;7717;47.792;12.076;2023-07-13T03:58:54;96260.41;;;16.35;100.00
15229;BME280;7717;47.792;12.076;2023-07-13T04:01:21;96263.88;;;16.35;100.00
15229;BME280;7717;47.792;12.076;2023-07-13T04:03:47;96265.72;;;16.35;100.00
15229;BME280;7717;47.792;12.076;2023-07-13T04:06:19;96267.13;;;16.37;100.00
15229;BME280;7717;47.792;12.076;2023-07-13T04:08:52;96242.97;;;16.32;100.00
15229;BME280;7717;47.792;12.076;2023-07-13T04:11:23;96258.75;;;16.34;100.00
15229;BME280;7717;47.792;12.076;2023-07-13T04:13:49;96280.25;;;16.45;100.00
15229;BME280;7717;47.792;12.076;2023-07-13T04:16:16;96278.00;;;16.42;100.00
15229;BME280;7717;47.792;12.076;2023-07-13T04:18:41;96279.63;;;16.43;100.00
15229;BME280;7717;47.792;12.076;2023-07-13T04:21:07;96285.19;;;16.48;100.00
15229;BME280;7717;47.792;12.076;2023-07-13T04:23:34;96278.63;;;16.44;100.00
15229;BME280;7717;47.792;12.076;2023-07-13T04:26:00;96272.47;;;16.37;100.00
15229;BME280;7717;47.792;12.076;2023-07-13T04:28:26;96268.59;;;16.40;100.00
15229;BME280;7717;47.792;12.076;2023-07-13T04:30:52;96288.88;;;16.47;100.00
15229;BME280;7717;47.792;12.076;2023-07-13T04:33:17;96296.63;;;16.55;100.00
15229;BME280;7717;47.792;12.076;2023-07-13T04:35:48;96295.63;;;16.50;100.00
15229;BME280;7717;47.792;12.076;2023-07-13T04:38:14;96294.41;;;16.46;100.00
15229;BME280;7717;47.792;12.076;2023-07-13T04:40:44;96263.88;;;16.22;100.00
15229;BME280;7717;47.792;12.076;2023-07-13T04:43:10;96298.28;;;16.37;100.00
15229;BME280;7717;47.792;12.076;2023-07-13T04:45:35;96311.00;;;16.41;100.00
15229;BME280;7717;47.792;12.076;2023-07-13T04:48:04;96297.25;;;16.31;100.00
15229;BME280;7717;47.792;12.076;2023-07-13T04:50:29;96308.13;;;16.36;100.00
15229;BME280;7717;47.792;12.076;2023-07-13T04:52:54;96305.06;;;16.33;100.00
15229;BME280;7717;47.792;12.076;2023-07-13T04:55:20;96304.03;;;16.27;100.00
15229;BME280;7717;47.792;12.076;2023-07-13T04:57:46;96329.88;;;16.46;100.00
15229;BME280;7717;47.792;12.076;2023-07-13T05:00:12;96314.88;;;16.39;100.00
15229;BME280;7717;47.792;12.076;2023-07-13T05:02:39;96315.72;;;16.46;100.00
15229;BME280;7717;47.792;12.076;2023-07-13T05:05:06;96336.59;;;16.49;100.00
15229;BME280;7717;47.792;12.076;2023-07-13T05:07:31;96336.84;;;16.47;100.00
15229;BME280;7717;47.792;12.076;2023-07-13T05:10:01;96324.09;;;16.43;100.00
15229;BME280;7717;47.792;12.076;2023-07-13T05:12:28;96325.94;;;16.42;100.00
15229;BME280;7717;47.792;12.076;2023-07-13T05:14:53;96342.75;;;16.49;100.00
15229;BME280;7717;47.792;12.076;2023-07-13T05:17:18;96351.19;;;16.59;100.00
15229;BME280;7717;47.792;12.076;2023-07-13T05:19:46;96359.41;;;16.64;100.00
15229;BME280;7717;47.792;12.076;2023-07-13T05:22:12;96339.50;;;16.54;100.00
15229;BME280;7717;47.792;12.076;2023-07-13T05:24:37;96350.34;;;16.59;100.00
15229;BME280;7717;47.792;12.076;2023-07-13T05:27:03;96338.69;;;16.47;100.00
15229;BME280;7717;47.792;12.076;2023-07-13T05:29:29;96353.03;;;16.59;100.00
15229;BME280;7717;47.792;12.076;2023-07-13T05:31:54;96365.38;;;16.66;100.00
15229;BME280;7717;47.792;12.076;2023-07-13T05:34:20;96350.19;;;16.60;100.00
15229;BME280;7717;47.792;12.076;2023-07-13T05:36:45;96316.53;;;16.33;100.00
15229;BME280;7717;47.792;12.076;2023-07-13T05:39:10;96367.81;;;16.61;100.00
15229;BME280;7717;47.792;12.076;2023-07-13T05:41:37;96353.66;;;16.54;100.00
15229;BME280;7717;47.792;12.076;2023-07-13T05:44:06;96305.88;;;16.20;100.00
15229;BME280;7717;47.792;12.076;2023-07-13T05:46:37;96363.25;;;16.55;100.00
15229;BME280;7717;47.792;12.076;2023-07-13T05:49:03;96347.06;;;16.44;100.00
15229;BME280;7717;47.792;12.076;2023-07-13T05:51:29;96365.56;;;16.65;100.00
15229;BME280;7717;47.792;12.076;2023-07-13T05:53:54;96370.69;;;16.80;100.00
15229;BME280;7717;47.792;12.076;2023-07-13T05:56:20;96369.03;;;16.85;100.00
15229;BME280;7717;47.792;12.076;2023-07-13T05:58:45;96368.63;;;17.01;100.00
15229;BME280;7717;47.792;12.076;2023-07-13T06:01:13;96368.19;;;17.18;100.00
15229;BME280;7717;47.792;12.076;2023-07-13T06:03:38;96355.50;;;17.00;100.00
15229;BME280;7717;47.792;12.076;2023-07-13T06:06:09;96357.97;;;16.95;99.84
15229;BME280;7717;47.792;12.076;2023-07-13T06:08:36;96361.44;;;16.89;100.00
15229;BME280;7717;47.792;12.076;2023-07-13T06:11:06;96373.56;;;16.98;100.00
15229;BME280;7717;47.792;12.076;2023-07-13T06:13:32;96370.69;;;16.99;100.00
15229;BME280;7717;47.792;12.076;2023-07-13T06:15:59;96367.41;;;16.91;100.00
15229;BME280;7717;47.792;12.076;2023-07-13T06:18:25;96349.38;;;16.80;100.00
15229;BME280;7717;47.792;12.076;2023-07-13T06:20:50;96367.59;;;17.02;100.00
15229;BME280;7717;47.792;12.076;2023-07-13T06:23:15;96360.41;;;17.09;100.00
15229;BME280;7717;47.792;12.076;2023-07-13T06:25:41;96360.19;;;17.24;100.00
15229;BME280;7717;47.792;12.076;2023-07-13T06:28:11;96358.28;;;17.38;99.94
15229;BME280;7717;47.792;12.076;2023-07-13T06:30:38;96360.66;;;17.79;100.00
15229;BME280;7717;47.792;12.076;2023-07-13T06:33:04;96368.94;;;17.64;98.86
15229;BME280;7717;47.792;12.076;2023-07-13T06:35:30;96368.09;;;17.64;99.16
15229;BME280;7717;47.792;12.076;2023-07-13T06:37:55;96387.19;;;17.67;98.87
15229;BME280;7717;47.792;12.076;2023-07-13T06:40:20;96387.78;;;17.69;99.54
15229;BME280;7717;47.792;12.076;2023-07-13T06:42:46;96395.63;;;17.51;99.01
15229;BME280;7717;47.792;12.076;2023-07-13T06:45:11;96387.00;;;17.49;99.45
15229;BME280;7717;47.792;12.076;2023-07-13T06:47:42;96391.72;;;17.54;99.57
15229;BME280;7717;47.792;12.076;2023-07-13T06:50:11;96382.47;;;17.49;99.61
15229;BME280;7717;47.792;12.076;2023-07-13T06:52:39;96377.34;;;17.55;100.00
15229;BME280;7717;47.792;12.076;2023-07-13T06:55:05;96389.22;;;17.72;99.57
15229;BME280;7717;47.792;12.076;2023-07-13T06:57:30;96388.34;;;17.84;99.08
15229;BME280;7717;47.792;12.076;2023-07-13T06:59:56;96395.22;;;18.12;98.47
15229;BME280;7717;47.792;12.076;2023-07-13T07:02:22;96391.63;;;18.31;98.09
15229;BME280;7717;47.792;12.076;2023-07-13T07:04:51;96373.38;;;18.28;97.53
15229;BME280;7717;47.792;12.076;2023-07-13T07:07:16;96368.16;;;18.40;97.57
15229;BME280;7717;47.792;12.076;2023-07-13T07:09:41;96394.03;;;18.77;97.27
15229;BME280;7717;47.792;12.076;2023-07-13T07:12:07;96380.97;;;18.62;96.50
15229;BME280;7717;47.792;12.076;2023-07-13T07:14:32;96393.34;;;18.82;95.74
15229;BME280;7717;47.792;12.076;2023-07-13T07:16:59;96393.91;;;18.90;95.67
15229;BME280;7717;47.792;12.076;2023-07-13T07:19:24;96379.13;;;19.13;95.31
15229;BME280;7717;47.792;12.076;2023-07-13T07:21:50;96383.53;;;19.25;94.39
15229;BME280;7717;47.792;12.076;2023-07-13T07:24:15;96379.31;;;19.36;94.34
15229;BME280;7717;47.792;12.076;2023-07-13T07:26:41;96403.47;;;19.72;94.45
15229;BME280;7717;47.792;12.076;2023-07-13T07:29:06;96392.66;;;19.97;93.47
15229;BME280;7717;47.792;12.076;2023-07-13T07:31:32;96391.34;;;19.70;91.63
15229;BME280;7717;47.792;12.076;2023-07-13T07:33:57;96408.47;;;19.87;91.97
15229;BME280;7717;47.792;12.076;2023-07-13T07:36:22;96399.81;;;20.03;92.43
15229;BME280;7717;47.792;12.076;2023-07-13T07:38:48;96404.19;;;20.34;90.44
15229;BME280;7717;47.792;12.076;2023-07-13T07:41:16;96413.69;;;20.30;90.67
15229;BME280;7717;47.792;12.076;2023-07-13T07:43:41;96416.97;;;20.32;89.71
15229;BME280;7717;47.792;12.076;2023-07-13T07:46:07;96426.28;;;20.11;90.87
15229;BME280;7717;47.792;12.076;2023-07-13T07:48:32;96411.81;;;20.01;90.54
15229;BME280;7717;47.792;12.076;2023-07-13T07:50:58;96409.47;;;20.04;91.26
15229;BME280;7717;47.792;12.076;2023-07-13T07:53:24;96419.69;;;20.14;90.53
15229;BME280;7717;47.792;12.076;2023-07-13T07:55:49;96448.22;;;20.56;91.39
15229;BME280;7717;47.792;12.076;2023-07-13T07:58:15;96420.25;;;20.64;90.19
15229;BME280;7717;47.792;12.076;2023-07-13T08:00:41;96445.44;;;20.33;89.67
15229;BME280;7717;47.792;12.076;2023-07-13T08:03:06;96439.19;;;20.39;90.24
15229;BME280;7717;47.792;12.076;2023-07-13T08:05:35;96436.16;;;20.77;90.55
15229;BME280;7717;47.792;12.076;2023-07-13T08:08:01;96432.66;;;21.18;91.02
15229;BME280;7717;47.792;12.076;2023-07-13T08:10:26;96418.00;;;21.02;88.32
15229;BME280;7717;47.792;12.076;2023-07-13T08:12:51;96425.47;;;21.54;86.59
15229;BME280;7717;47.792;12.076;2023-07-13T08:15:17;96407.44;;;21.54;88.92
15229;BME280;7717;47.792;12.076;2023-07-13T08:17:46;96426.84;;;22.31;87.76
15229;BME280;7717;47.792;12.076;2023-07-13T08:20:14;96418.63;;;22.94;82.66
15229;BME280;7717;47.792;12.076;2023-07-13T08:22:40;96419.22;;;23.13;82.78
15229;BME280;7717;47.792;12.076;2023-07-13T08:25:05;96412.19;;;23.62;83.65
15229;BME280;7717;47.792;12.076;2023-07-13T08:27:31;96418.75;;;23.33;82.04
15229;BME280;7717;47.792;12.076;2023-07-13T08:29:57;96437.69;;;22.76;83.99
15229;BME280;7717;47.792;12.076;2023-07-13T08:32:23;96439.81;;;22.63;85.10
15229;BME280;7717;47.792;12.076;2023-07-13T08:34:52;96445.31;;;22.28;85.33
15229;BME280;7717;47.792;12.076;2023-07-13T08:37:18;96434.16;;;22.47;87.18
15229;BME280;7717;47.792;12.076;2023-07-13T08:39:47;96439.34;;;22.37;82.15
15229;BME280;7717;47.792;12.076;2023-07-13T08:42:32;96450.75;;;21.34;80.20
15229;BME280;7717;47.792;12.076;2023-07-13T08:47:42;96464.34;;;21.51;87.55
15229;BME280;7717;47.792;12.076;2023-07-13T08:50:17;96454.88;;;21.60;85.57
15229;BME280;7717;47.792;12.076;2023-07-13T08:52:44;96440.13;;;21.28;84.82
15229;BME280;7717;47.792;12.076;2023-07-13T08:55:20;96460.84;;;21.09;80.21
15229;BME280;7717;47.792;12.076;2023-07-13T08:57:54;96448.16;;;20.75;79.36
15229;BME280;7717;47.792;12.076;2023-07-13T09:00:22;96472.16;;;21.64;86.15
15229;BME280;7717;47.792;12.076;2023-07-13T09:02:57;96465.25;;;20.92;77.87
15229;BME280;7717;47.792;12.076;2023-07-13T09:05:34;96473.69;;;21.07;83.04
15229;BME280;7717;47.792;12.076;2023-07-13T09:08:17;96482.41;;;20.91;80.67
15229;BME280;7717;47.792;12.076;2023-07-13T09:10:49;96480.94;;;20.77;84.38
15229;BME280;7717;47.792;12.076;2023-07-13T09:13:28;96485.06;;;20.61;81.59
15229;BME280;7717;47.792;12.076;2023-07-13T09:15:59;96476.03;;;20.44;84.15
15229;BME280;7717;47.792;12.076;2023-07-13T09:18:41;96475.50;;;20.95;82.96
15229;BME280;7717;47.792;12.076;2023-07-13T09:21:10;96481.97;;;20.76;84.66
15229;BME280;7717;47.792;12.076;2023-07-13T09:23:37;96482.81;;;20.76;86.98
15229;BME280;7717;47.792;12.076;2023-07-13T09:26:14;96482.47;;;20.73;79.57
15229;BME280;7717;47.792;12.076;2023-07-13T09:28:46;96467.66;;;20.82;81.62
15229;BME280;7717;47.792;12.076;2023-07-13T09:31:29;96481.28;;;21.10;83.58
15229;BME280;7717;47.792;12.076;2023-07-13T09:33:56;96469.94;;;21.61;80.67
15229;BME280;7717;47.792;12.076;2023-07-13T09:36:32;96456.94;;;21.35;82.49
15229;BME280;7717;47.792;12.076;2023-07-13T09:39:29;96476.59;;;21.82;78.11
15229;BME280;7717;47.792;12.076;2023-07-13T09:44:37;96481.72;;;21.84;85.31
15229;BME280;7717;47.792;12.076;2023-07-13T09:47:03;96446.81;;;21.37;82.97
15229;BME280;7717;47.792;12.076;2023-07-13T09:49:40;96467.94;;;21.33;85.29
15229;BME280;7717;47.792;12.076;2023-07-13T09:52:10;96478.91;;;21.32;84.71
15229;BME280;7717;47.792;12.076;2023-07-13T09:54:36;96461.06;;;21.84;80.74
15229;BME280;7717;47.792;12.076;2023-07-13T09:57:08;96478.47;;;22.56;82.56
15229;BME280;7717;47.792;12.076;2023-07-13T09:59:43;96462.25;;;22.80;74.30
15229;BME280;7717;47.792;12.076;2023-07-13T10:02:27;96470.75;;;22.20;75.00
15229;BME280;7717;47.792;12.076;2023-07-13T10:05:03;96492.97;;;21.80;84.05
15229;BME280;7717;47.792;12.076;2023-07-13T10:07:35;96484.19;;;21.50;80.53
15229;BME280;7717;47.792;12.076;2023-07-13T10:10:02;96506.94;;;21.36;79.69
15229;BME280;7717;47.792;12.076;2023-07-13T10:12:36;96496.81;;;20.78;77.04
15229;BME280;7717;47.792;12.076;2023-07-13T10:15:03;96499.81;;;21.00;83.28
15229;BME280;7717;47.792;12.076;2023-07-13T10:17:35;96498.16;;;21.29;76.88
15229;BME280;7717;47.792;12.076;2023-07-13T10:20:03;96507.44;;;21.15;79.16
15229;BME280;7717;47.792;12.076;2023-07-13T10:22:39;96544.28;;;21.08;77.21
15229;BME280;7717;47.792;12.076;2023-07-13T10:25:15;96541.25;;;20.56;75.88
15229;BME280;7717;47.792;12.076;2023-07-13T10:27:41;96545.78;;;20.19;80.16
15229;BME280;7717;47.792;12.076;2023-07-13T10:30:22;96542.84;;;20.02;76.51
15229;BME280;7717;47.792;12.076;2023-07-13T10:32:51;96521.22;;;19.61;85.60
15229;BME280;7717;47.792;12.076;2023-07-13T10:35:19;96542.63;;;18.98;85.21
15229;BME280;7717;47.792;12.076;2023-07-13T10:37:51;96542.19;;;18.63;81.79
15229;BME280;7717;47.792;12.076;2023-07-13T10:40:54;96562.69;;;18.76;78.55
15229;BME280;7717;47.792;12.076;2023-07-13T10:43:28;96570.19;;;18.60;82.80
15229;BME280;7717;47.792;12.076;2023-07-13T10:45:57;96551.22;;;18.69;87.28
15229;BME280;7717;47.792;12.076;2023-07-13T10:48:24;96563.69;;;18.23;86.43
15229;BME280;7717;47.792;12.076;2023-07-13T10:50:52;96547.13;;;17.75;86.23
15229;BME280;7717;47.792;12.076;2023-07-13T11:00:52;96589.03;;;16.61;90.64
15229;BME280;7717;47.792;12.076;2023-07-13T11:03:20;96582.69;;;16.28;91.01
15229;BME280;7717;47.792;12.076;2023-07-13T11:05:51;96592.75;;;16.39;92.31
15229;BME280;7717;47.792;12.076;2023-07-13T11:08:38;96588.94;;;16.48;90.10
15229;BME280;7717;47.792;12.076;2023-07-13T11:11:32;96585.31;;;16.62;91.08
15229;BME280;7717;47.792;12.076;2023-07-13T11:14:03;96574.50;;;16.77;91.08
15229;BME280;7717;47.792;12.076;2023-07-13T11:16:36;96538.19;;;16.69;91.23
15229;BME280;7717;47.792;12.076;2023-07-13T11:21:28;96577.91;;;18.11;88.88
15229;BME280;7717;47.792;12.076;2023-07-13T11:24:12;96576.44;;;18.35;85.44
15229;BME280;7717;47.792;12.076;2023-07-13T11:29:32;96580.22;;;18.72;84.83
15229;BME280;7717;47.792;12.076;2023-07-13T11:32:00;96571.19;;;18.66;85.24
15229;BME280;7717;47.792;12.076;2023-07-13T11:34:35;96563.34;;;18.71;82.84
15229;BME280;7717;47.792;12.076;2023-07-13T11:37:11;96562.28;;;18.79;85.89
15229;BME280;7717;47.792;12.076;2023-07-13T11:39:41;96545.09;;;18.99;85.66
15229;BME280;7717;47.792;12.076;2023-07-13T11:42:12;96529.88;;;19.56;85.51
15229;BME280;7717;47.792;12.076;2023-07-13T11:44:43;96548.78;;;19.61;82.55
15229;BME280;7717;47.792;12.076;2023-07-13T11:47:11;96546.59;;;19.76;84.94
15229;BME280;7717;47.792;12.076;2023-07-13T11:49:50;96525.66;;;20.28;80.77
15229;BME280;7717;47.792;12.076;2023-07-13T11:52:19;96525.06;;;21.11;81.50
15229;BME280;7717;47.792;12.076;2023-07-13T11:54:55;96527.47;;;22.07;70.47
15229;BME280;7717;47.792;12.076;2023-07-13T11:57:30;96503.19;;;23.10;69.56
15229;BME280;7717;47.792;12.076;2023-07-13T12:00:00;96511.47;;;23.37;75.25
15229;BME280;7717;47.792;12.076;2023-07-13T12:02:32;96510.69;;;23.70;71.71
15229;BME280;7717;47.792;12.076;2023-07-13T12:05:00;96502.13;;;23.28;74.59
15229;BME280;7717;47.792;12.076;2023-07-13T12:07:32;96512.09;;;24.28;62.35
15229;BME280;7717;47.792;12.076;2023-07-13T12:12:57;96501.31;;;24.49;69.95
15229;BME280;7717;47.792;12.076;2023-07-13T12:15:27;96515.38;;;23.13;77.22
15229;BME280;7717;47.792;12.076;2023-07-13T12:17:55;96492.47;;;24.32;75.96
15229;BME280;7717;47.792;12.076;2023-07-13T12:20:24;96507.91;;;24.59;70.07
15229;BME280;7717;47.792;12.076;2023-07-13T12:22:51;96506.81;;;24.81;72.61
15229;BME280;7717;47.792;12.076;2023-07-13T12:25:18;96451.47;;;24.35;75.53
15229;BME280;7717;47.792;12.076;2023-07-13T12:27:49;96455.06;;;23.47;67.33
15229;BME280;7717;47.792;12.076;2023-07-13T12:33:08;96469.44;;;27.20;56.87
15229;BME280;7717;47.792;12.076;2023-07-13T12:35:46;96463.84;;;26.60;55.01
15229;BME280;7717;47.792;12.076;2023-07-13T12:38:13;96484.69;;;27.57;69.18
15229;BME280;7717;47.792;12.076;2023-07-13T12:40:39;96478.91;;;26.98;61.73
15229;BME280;7717;47.792;12.076;2023-07-13T12:43:12;96470.38;;;26.59;64.85
15229;BME280;7717;47.792;12.076;2023-07-13T12:45:39;96481.16;;;26.01;76.23
15229;BME280;7717;47.792;12.076;2023-07-13T12:48:20;96476.50;;;27.26;75.99
15229;BME280;7717;47.792;12.076;2023-07-13T12:50:49;96466.78;;;27.76;60.87
15229;BME280;7717;47.792;12.076;2023-07-13T12:53:21;96474.78;;;26.85;63.49
15229;BME280;7717;47.792;12.076;2023-07-13T12:55:50;96472.44;;;28.15;69.61
15229;BME280;7717;47.792;12.076;2023-07-13T12:58:39;96479.09;;;26.86;52.00
15229;BME280;7717;47.792;12.076;2023-07-13T13:01:10;96468.91;;;27.94;71.76
15229;BME280;7717;47.792;12.076;2023-07-13T13:03:49;96472.75;;;27.73;57.17
15229;BME280;7717;47.792;12.076;2023-07-13T13:08:52;96484.41;;;27.68;56.69
15229;BME280;7717;47.792;12.076;2023-07-13T13:11:19;96482.75;;;28.03;70.31
15229;BME280;7717;47.792;12.076;2023-07-13T13:13:45;96474.38;;;27.84;71.85
15229;BME280;7717;47.792;12.076;2023-07-13T13:18:49;96475.16;;;28.15;66.14
15229;BME280;7717;47.792;12.076;2023-07-13T13:21:15;96468.06;;;28.24;71.77
15229;BME280;7717;47.792;12.076;2023-07-13T13:23:46;96446.97;;;27.91;52.33
15229;BME280;7717;47.792;12.076;2023-07-13T13:26:13;96470.31;;;27.72;68.62
15229;BME280;7717;47.792;12.076;2023-07-13T13:28:41;96472.91;;;28.42;67.75
15229;BME280;7717;47.792;12.076;2023-07-13T13:31:10;96468.16;;;28.78;67.55
15229;BME280;7717;47.792;12.076;2023-07-13T13:33:39;96446.59;;;28.13;61.16
15229;BME280;7717;47.792;12.076;2023-07-13T13:36:17;96462.13;;;27.87;55.06